Terminal Aerodrome Forecast
Issued by NWS

Home | Current Version | Previous Version | Text Only | Print | Product List | Glossary Off
Versions: 1 2 3 4 5 6 7 8 9 10 11 12 13 14

000
FTUS43 KPAH 232300
TAFCGI
TAF
KCGI 232320Z 2400/2424 28008KT P6SM SCT025 BKN050
     FM240200 36005KT P6SM SCT050
     FM241500 02008KT P6SM SCT035=

USA.gov is the U.S. government's official web portal to all federal, state and local government web resources and services.